EDMA/AGB METAR and TAF weather

Enter ICAO airport designator
Station Type Date Time Source
EDMA METAR 2020/07/11 16:50 UTC NOAA

EDMA 111650Z 34007KT 300V020 CAVOK 20/09 Q1023


Station Type Date Time Source
EDMA Decoded METAR 2020/07/11 16:50 UTC NOAA

Augsburg, Germany (EDMA) 48-26N 010-56E 463M
Jul 11, 2020 - 12:50 PM EDT / 2020.07.11 1650 UTC
Wind: from the NNW (340 degrees) at 8 MPH (7 KT) (direction variable):0
Visibility: greater than 7 mile(s):0
Temperature: 68 F (20 C)
Dew Point: 48 F (9 C)
Relative Humidity: 49%
Pressure (altimeter): 30.21 in. Hg (1023 hPa)
ob: EDMA 111650Z 34007KT 300V020 CAVOK 20/09 Q1023
cycle: 17

Station Type Date Time Source
EDMA TAF 2010/02/22 13:50 UTC NOAA

METAR EDMA 221350Z 23006KT CAVOK 10/02 Q0996

Example: see airport list